createdAt,value
2018-08-30T00:00:56.777Z,26.80
2018-08-30T00:01:56.753Z,26.80
2018-08-30T00:02:56.938Z,24.50
2018-08-30T00:03:56.911Z,24.80
2018-08-30T00:04:56.887Z,22.40
2018-08-30T00:05:56.664Z,23.70
2018-08-30T00:06:56.639Z,26.80
2018-08-30T00:07:56.818Z,27.20
2018-08-30T00:08:56.794Z,28.10
2018-08-30T00:09:56.569Z,28.40
2018-08-30T00:10:56.545Z,30.00
2018-08-30T00:11:56.823Z,25.00
2018-08-30T00:12:56.504Z,28.70
2018-08-30T00:13:56.479Z,26.10
2018-08-30T00:14:56.456Z,28.00
2018-08-30T00:15:56.435Z,30.00
2018-08-30T00:16:56.613Z,24.40
2018-08-30T00:17:56.435Z,25.70
2018-08-30T00:18:56.360Z,24.60
2018-08-30T00:19:56.339Z,27.40
2018-08-30T00:20:56.319Z,35.10
2018-08-30T00:21:56.300Z,24.50
2018-08-30T00:22:56.280Z,27.60
2018-08-30T00:23:56.260Z,26.70
2018-08-30T00:24:56.226Z,33.70
2018-08-30T00:25:56.203Z,25.90
2018-08-30T00:26:56.179Z,26.40
2018-08-30T00:27:56.158Z,33.20
2018-08-30T00:34:33.550Z,38.00
2018-08-30T00:35:33.531Z,38.40
2018-08-30T00:36:33.304Z,37.90
2018-08-30T00:37:33.274Z,35.40
2018-08-30T00:38:33.259Z,37.80
2018-08-30T00:39:33.427Z,41.80
2018-08-30T00:41:15.572Z,36.10
2018-08-30T00:42:15.537Z,35.50
2018-08-30T00:43:15.310Z,33.70
2018-08-30T00:44:15.486Z,35.50
2018-08-30T00:45:18.691Z,40.40
2018-08-30T00:46:18.060Z,39.00
2018-08-30T00:47:15.416Z,33.90
2018-08-30T00:48:15.394Z,35.60
2018-08-30T00:49:15.377Z,37.90
2018-08-30T00:50:15.348Z,42.90
2018-08-30T00:51:15.321Z,37.40
2018-08-30T00:52:15.297Z,35.10
2018-08-30T00:53:15.273Z,37.80
2018-08-30T00:54:15.048Z,38.70
2018-08-30T00:55:15.226Z,35.20
2018-08-30T00:56:15.000Z,38.40
2018-08-30T00:57:14.978Z,37.60
2018-08-30T00:58:15.158Z,38.20
2018-08-30T00:59:14.929Z,37.80
2018-08-30T01:00:14.911Z,34.50
2018-08-30T01:01:14.884Z,43.00
2018-08-30T01:02:15.062Z,41.40
2018-08-30T01:03:14.848Z,44.70
2018-08-30T01:04:15.017Z,37.30
2018-08-30T01:05:14.790Z,40.50
2018-08-30T01:06:14.764Z,42.00
2018-08-30T01:07:14.744Z,37.00
2018-08-30T01:08:14.727Z,37.50
2018-08-30T01:09:15.151Z,35.50
2018-08-30T01:10:14.670Z,43.10
2018-08-30T01:11:14.648Z,42.60
2018-08-30T01:12:14.628Z,38.70
2018-08-30T01:13:14.602Z,44.50
2018-08-30T01:14:14.577Z,44.00
2018-08-30T01:15:14.554Z,37.80
2018-08-30T01:16:14.730Z,42.40
2018-08-30T01:17:17.328Z,40.60
2018-08-30T01:18:14.687Z,36.10
2018-08-30T01:19:14.461Z,38.90
2018-08-30T01:20:14.636Z,39.90
2018-08-30T01:21:14.614Z,39.40
2018-08-30T01:22:14.387Z,36.90
2018-08-30T01:23:14.565Z,43.30
2018-08-30T01:24:14.543Z,35.00
2018-08-30T01:25:14.315Z,39.60
2018-08-30T01:26:14.292Z,40.20
2018-08-30T01:27:14.266Z,37.70
2018-08-30T01:28:14.253Z,38.40
2018-08-30T01:29:14.219Z,37.80
2018-08-30T01:30:14.197Z,37.30
2018-08-30T01:31:14.171Z,38.60
2018-08-30T01:32:14.154Z,40.80
2018-08-30T01:33:14.577Z,39.70
2018-08-30T01:34:14.309Z,38.60
2018-08-30T01:35:14.284Z,39.50
2018-08-30T01:36:14.254Z,42.50
2018-08-30T01:37:14.234Z,38.10
2018-08-30T01:38:56.659Z,40.60
2018-08-30T01:39:56.336Z,39.60
2018-08-30T01:40:56.310Z,36.60
2018-08-30T01:41:56.132Z,41.20
2018-08-30T01:42:56.060Z,39.50
2018-08-30T01:43:56.050Z,38.40
2018-08-30T01:44:56.012Z,36.90
2018-08-30T01:45:55.993Z,38.80
2018-08-30T01:46:56.168Z,37.90
2018-08-30T01:47:56.143Z,38.20
2018-08-30T01:48:56.121Z,38.90
2018-08-30T01:49:55.896Z,37.20
2018-08-30T01:51:40.845Z,36.70
2018-08-30T01:52:37.999Z,39.40
2018-08-30T01:53:37.973Z,35.30
2018-08-30T01:54:37.956Z,41.80
2018-08-30T01:56:20.079Z,33.80
2018-08-30T01:57:20.261Z,36.10
2018-08-30T01:58:20.237Z,33.10
2018-08-30T01:59:20.207Z,34.50
2018-08-30T02:00:20.183Z,33.40
2018-08-30T02:01:20.158Z,36.80
2018-08-30T02:02:20.135Z,32.50
2018-08-30T02:03:20.113Z,33.80
2018-08-30T02:04:19.893Z,38.20
2018-08-30T02:05:19.873Z,35.10
2018-08-30T02:06:19.839Z,36.30
2018-08-30T02:07:19.819Z,33.10
2018-08-30T02:08:19.789Z,41.60
2018-08-30T02:09:19.765Z,33.30
2018-08-30T02:10:19.743Z,33.60
2018-08-30T02:11:19.718Z,40.90
2018-08-30T02:12:19.697Z,34.70
2018-08-30T02:13:20.884Z,33.60
2018-08-30T02:14:19.647Z,36.60
2018-08-30T02:15:19.627Z,29.70
2018-08-30T02:16:19.600Z,34.40
2018-08-30T02:17:19.576Z,32.60
2018-08-30T02:18:19.554Z,33.30
2018-08-30T02:19:19.532Z,36.20
2018-08-30T02:20:19.505Z,36.00
2018-08-30T02:21:19.491Z,30.40
2018-08-30T02:22:19.461Z,31.80
2018-08-30T02:23:19.435Z,32.90
2018-08-30T02:24:19.410Z,30.50
2018-08-30T02:25:19.386Z,34.50
2018-08-30T02:26:19.364Z,39.00
2018-08-30T02:27:19.340Z,40.00
2018-08-30T02:28:19.316Z,34.80
2018-08-30T02:29:19.295Z,31.90
2018-08-30T02:30:19.269Z,34.00
2018-08-30T02:31:19.246Z,35.50
2018-08-30T02:32:19.421Z,36.80
2018-08-30T02:33:19.194Z,35.10
2018-08-30T02:34:19.171Z,35.50
2018-08-30T02:36:01.502Z,35.40
2018-08-30T02:37:43.632Z,37.00
2018-08-30T02:38:43.404Z,38.20
2018-08-30T02:40:28.358Z,39.90
2018-08-30T02:42:11.087Z,38.30
2018-08-30T02:43:07.834Z,41.50
2018-08-30T02:44:10.733Z,41.50
2018-08-30T02:45:07.783Z,41.80
2018-08-30T02:46:07.557Z,44.60
2018-08-30T02:47:07.736Z,45.40
2018-08-30T02:48:07.708Z,47.90
2018-08-30T02:49:07.742Z,44.20
2018-08-30T02:50:49.812Z,49.00
2018-08-30T02:51:49.788Z,51.20
2018-08-30T02:52:49.561Z,49.70
2018-08-30T02:53:49.533Z,54.40
2018-08-30T02:54:49.507Z,49.40
2018-08-30T02:55:49.689Z,54.00
2018-08-30T02:56:49.459Z,52.10
2018-08-30T02:57:49.434Z,54.00
2018-08-30T02:58:49.411Z,55.70
2018-08-30T02:59:49.385Z,55.70
2018-08-30T03:00:49.359Z,52.90
2018-08-30T03:01:49.333Z,51.90
2018-08-30T03:02:49.511Z,56.80
2018-08-30T03:03:49.283Z,52.60
2018-08-30T03:04:49.258Z,62.20
2018-08-30T03:05:49.233Z,63.70
2018-08-30T03:06:49.209Z,60.80
2018-08-30T03:07:49.183Z,55.00
2018-08-30T03:08:49.159Z,59.30
2018-08-30T03:09:49.139Z,61.20
2018-08-30T03:10:49.111Z,55.90
2018-08-30T03:11:49.088Z,67.60
2018-08-30T03:12:49.060Z,57.90
2018-08-30T03:13:49.038Z,65.00
2018-08-30T03:14:49.012Z,64.00
2018-08-30T03:15:48.995Z,61.80
2018-08-30T03:16:48.962Z,63.40
2018-08-30T03:17:48.936Z,64.20
2018-08-30T03:18:48.911Z,62.60
2018-08-30T03:19:48.886Z,62.70
2018-08-30T03:20:49.063Z,67.30
2018-08-30T03:21:48.837Z,65.80
2018-08-30T03:22:49.016Z,65.20
2018-08-30T03:23:48.788Z,67.40
2018-08-30T03:24:48.762Z,68.90
2018-08-30T03:25:48.735Z,71.00
2018-08-30T03:26:48.712Z,63.10
2018-08-30T03:27:48.685Z,70.50
2018-08-30T03:28:48.660Z,72.00
2018-08-30T03:29:48.635Z,66.70
2018-08-30T03:30:48.697Z,74.50
2018-08-30T03:31:48.587Z,66.80
2018-08-30T03:32:48.563Z,69.70
2018-08-30T03:33:48.539Z,78.00
2018-08-30T03:34:48.509Z,66.80
2018-08-30T03:35:48.686Z,68.20
2018-08-30T03:36:48.458Z,78.20
2018-08-30T03:37:48.433Z,76.90
2018-08-30T03:38:48.410Z,81.60
2018-08-30T03:39:48.385Z,77.80
2018-08-30T03:40:48.358Z,75.80
2018-08-30T03:41:48.333Z,78.30
2018-08-30T03:42:48.310Z,76.70
2018-08-30T03:43:48.484Z,81.10
2018-08-30T03:44:48.459Z,76.80
2018-08-30T03:45:48.232Z,76.50
2018-08-30T03:46:48.284Z,79.30
2018-08-30T03:47:48.181Z,84.70
2018-08-30T03:48:48.156Z,84.60
2018-08-30T03:49:48.133Z,87.70
2018-08-30T03:50:48.107Z,85.20
2018-08-30T03:51:48.080Z,88.10
2018-08-30T03:52:48.060Z,87.20
2018-08-30T03:53:48.030Z,88.90
2018-08-30T03:54:48.011Z,84.50
2018-08-30T03:55:47.980Z,91.20
2018-08-30T03:56:47.955Z,92.60
2018-08-30T03:57:47.930Z,90.90
2018-08-30T03:58:47.905Z,93.10
2018-08-30T03:59:47.884Z,91.70
2018-08-30T04:00:47.856Z,98.00
2018-08-30T04:01:47.829Z,103.10
2018-08-30T04:02:47.855Z,96.00
2018-08-30T04:03:47.778Z,99.70
2018-08-30T04:04:47.754Z,92.50
2018-08-30T04:05:47.734Z,101.20
2018-08-30T04:06:47.705Z,97.90
2018-08-30T04:07:47.682Z,97.10
2018-08-30T04:08:47.855Z,92.60
2018-08-30T04:09:47.640Z,104.80
2018-08-30T04:10:47.603Z,96.90
2018-08-30T04:11:47.579Z,97.20
2018-08-30T04:12:47.553Z,100.70
2018-08-30T04:13:47.532Z,107.10
2018-08-30T04:14:47.502Z,91.30
2018-08-30T04:15:47.476Z,108.60
2018-08-30T04:16:47.451Z,102.20
2018-08-30T04:17:47.427Z,98.20
2018-08-30T04:18:47.401Z,112.40
2018-08-30T04:19:47.377Z,104.10
2018-08-30T04:20:47.351Z,114.50
2018-08-30T04:21:47.326Z,105.90
2018-08-30T04:22:47.306Z,105.70
2018-08-30T04:23:47.275Z,109.10
2018-08-30T04:24:47.250Z,113.10
2018-08-30T04:25:47.224Z,113.50
2018-08-30T04:26:47.199Z,110.90
2018-08-30T04:27:47.174Z,106.30
2018-08-30T04:28:47.149Z,108.70
2018-08-30T04:29:47.127Z,113.20
2018-08-30T04:30:47.099Z,110.60
2018-08-30T04:31:47.073Z,110.60
2018-08-30T04:32:47.048Z,102.40
2018-08-30T04:33:47.023Z,112.80
2018-08-30T04:34:46.998Z,102.80
2018-08-30T04:35:46.972Z,109.60
2018-08-30T04:36:46.949Z,115.30
2018-08-30T04:37:46.920Z,108.60
2018-08-30T04:38:47.152Z,104.40
2018-08-30T04:39:46.869Z,109.00
2018-08-30T04:40:46.848Z,109.10
2018-08-30T04:41:46.820Z,107.20
2018-08-30T04:42:46.867Z,98.90
2018-08-30T04:43:46.770Z,110.90
2018-08-30T04:44:46.744Z,102.20
2018-08-30T04:45:46.724Z,102.20
2018-08-30T04:46:46.697Z,105.40
2018-08-30T04:47:46.671Z,110.40
2018-08-30T04:48:46.645Z,95.90
2018-08-30T04:49:46.619Z,96.60
2018-08-30T04:50:46.894Z,95.30
2018-08-30T04:51:46.570Z,107.80
2018-08-30T04:52:46.544Z,98.50
2018-08-30T04:53:46.523Z,95.90
2018-08-30T04:54:46.497Z,91.80
2018-08-30T04:55:46.469Z,93.10
2018-08-30T04:56:46.447Z,99.20
2018-08-30T04:57:46.422Z,102.00
2018-08-30T04:58:46.399Z,100.60
2018-08-30T04:59:46.371Z,100.40
2018-08-30T05:00:46.344Z,94.40
2018-08-30T05:01:46.358Z,89.60
2018-08-30T05:02:46.293Z,89.10
2018-08-30T05:03:46.268Z,77.30
2018-08-30T05:04:46.242Z,89.60
2018-08-30T05:05:46.229Z,87.00
2018-08-30T05:06:46.199Z,91.00
2018-08-30T05:07:46.217Z,88.80
2018-08-30T05:08:46.143Z,83.30
2018-08-30T05:09:46.117Z,76.70
2018-08-30T05:10:46.095Z,78.50
2018-08-30T05:11:46.067Z,78.50
2018-08-30T05:12:46.045Z,86.10
2018-08-30T05:13:46.016Z,75.00
2018-08-30T05:14:45.991Z,75.00
2018-08-30T05:15:45.966Z,79.40
2018-08-30T05:16:45.942Z,80.00
2018-08-30T05:17:45.918Z,82.10
2018-08-30T05:18:45.893Z,83.80
2018-08-30T05:19:45.867Z,80.30
2018-08-30T05:20:45.850Z,70.60
2018-08-30T05:21:45.814Z,72.80
2018-08-30T05:22:45.791Z,83.00
2018-08-30T05:23:45.765Z,82.60
2018-08-30T05:24:45.740Z,82.20
2018-08-30T05:25:45.719Z,77.40
2018-08-30T05:26:45.691Z,74.60
2018-08-30T05:27:45.666Z,75.70
2018-08-30T05:28:45.643Z,63.60
2018-08-30T05:29:45.644Z,68.20
2018-08-30T05:30:45.596Z,62.60
2018-08-30T05:31:45.566Z,61.50
2018-08-30T05:32:45.544Z,62.40
2018-08-30T05:33:45.514Z,68.50
2018-08-30T05:34:45.488Z,68.60
2018-08-30T05:35:45.516Z,68.40
2018-08-30T05:36:45.438Z,72.10
2018-08-30T05:37:45.414Z,63.50
2018-08-30T05:38:45.390Z,74.20
2018-08-30T05:39:45.368Z,66.80
2018-08-30T05:40:45.343Z,67.50
2018-08-30T05:41:45.315Z,72.50
2018-08-30T05:42:45.287Z,72.30
2018-08-30T05:43:45.261Z,72.80
2018-08-30T05:44:45.415Z,75.30
2018-08-30T05:45:45.212Z,73.10
2018-08-30T05:46:45.189Z,73.50
2018-08-30T05:47:45.165Z,76.90
2018-08-30T05:48:45.136Z,76.70
2018-08-30T05:49:45.121Z,70.60
2018-08-30T05:50:45.089Z,70.20
2018-08-30T05:51:45.063Z,75.80
2018-08-30T05:52:45.044Z,69.30
2018-08-30T05:53:45.011Z,66.80
2018-08-30T05:54:44.987Z,72.10
2018-08-30T05:55:44.960Z,69.50
2018-08-30T05:56:44.979Z,66.90
2018-08-30T05:57:44.915Z,68.50
2018-08-30T05:58:44.887Z,70.30
2018-08-30T05:59:44.861Z,68.00
2018-08-30T06:00:44.838Z,68.30
2018-08-30T06:01:44.811Z,66.60
2018-08-30T06:02:44.785Z,64.50
2018-08-30T06:03:44.760Z,60.90
2018-08-30T06:04:44.747Z,63.30
2018-08-30T06:05:44.714Z,66.40
2018-08-30T06:06:44.688Z,62.00
2018-08-30T06:07:44.663Z,58.30
2018-08-30T06:08:44.640Z,61.90
2018-08-30T06:09:44.615Z,58.80
2018-08-30T06:10:44.588Z,61.20
2018-08-30T06:11:44.561Z,59.40
2018-08-30T06:12:44.536Z,54.90
2018-08-30T06:13:44.513Z,57.80
2018-08-30T06:14:44.489Z,52.70
2018-08-30T06:15:44.467Z,56.40
2018-08-30T06:16:44.438Z,55.80
2018-08-30T06:17:44.430Z,59.20
2018-08-30T06:18:44.388Z,62.10
2018-08-30T06:19:44.363Z,56.00
2018-08-30T06:20:44.338Z,55.00
2018-08-30T06:21:44.311Z,58.80
2018-08-30T06:22:44.287Z,60.00
2018-08-30T06:23:44.264Z,58.20
2018-08-30T06:24:44.237Z,55.50
2018-08-30T06:25:44.215Z,60.20
2018-08-30T06:26:44.200Z,57.30
2018-08-30T06:27:44.166Z,57.20
2018-08-30T06:28:44.140Z,53.70
2018-08-30T06:29:44.113Z,58.50
2018-08-30T06:30:44.089Z,58.00
2018-08-30T06:31:44.073Z,53.80
2018-08-30T06:32:44.104Z,57.40
2018-08-30T06:33:44.014Z,59.80
2018-08-30T06:34:44.069Z,56.20
2018-08-30T06:35:43.964Z,56.90
2018-08-30T06:36:43.943Z,55.40
2018-08-30T06:37:43.916Z,55.80
2018-08-30T06:38:43.971Z,59.20
2018-08-30T06:39:43.867Z,54.50
2018-08-30T06:40:43.841Z,54.50
2018-08-30T06:41:43.818Z,58.00
2018-08-30T06:42:43.791Z,55.60
2018-08-30T06:43:44.017Z,52.60
2018-08-30T06:44:43.745Z,51.40
2018-08-30T06:45:43.719Z,59.20
2018-08-30T06:46:43.698Z,56.90
2018-08-30T06:47:43.668Z,49.10
2018-08-30T06:48:43.749Z,45.90
2018-08-30T06:49:43.621Z,43.40
2018-08-30T06:50:43.596Z,50.80
2018-08-30T06:51:43.569Z,46.60
2018-08-30T06:52:43.546Z,48.30
2018-08-30T06:53:43.521Z,47.80
2018-08-30T06:54:43.494Z,43.80
2018-08-30T06:55:43.477Z,44.10
2018-08-30T06:56:43.445Z,42.00
2018-08-30T06:57:43.424Z,41.10
2018-08-30T06:58:43.398Z,46.30
2018-08-30T06:59:43.384Z,47.70
2018-08-30T07:00:43.347Z,46.10
2018-08-30T07:01:43.321Z,48.30
2018-08-30T07:02:43.298Z,42.30
2018-08-30T07:03:43.273Z,44.10
2018-08-30T07:04:43.252Z,46.10
2018-08-30T07:05:43.224Z,49.70
2018-08-30T07:06:43.196Z,49.40
2018-08-30T07:07:43.171Z,50.00
2018-08-30T07:08:43.147Z,44.20
2018-08-30T07:09:43.125Z,48.20
2018-08-30T07:10:43.100Z,53.60
2018-08-30T07:11:43.076Z,55.70
2018-08-30T07:12:43.050Z,48.30
2018-08-30T07:13:43.024Z,51.40
2018-08-30T07:14:43.080Z,51.90
2018-08-30T07:15:42.975Z,54.40
2018-08-30T07:16:42.951Z,52.00
2018-08-30T07:17:42.928Z,56.80
2018-08-30T07:18:43.203Z,50.90
2018-08-30T07:19:42.876Z,55.70
2018-08-30T07:20:42.852Z,55.60
2018-08-30T07:21:42.834Z,53.40
2018-08-30T07:22:42.803Z,47.00
2018-08-30T07:23:42.778Z,51.90
2018-08-30T07:24:42.754Z,49.10
2018-08-30T07:25:42.729Z,46.60
2018-08-30T07:26:42.705Z,50.90
2018-08-30T07:27:42.678Z,50.50
2018-08-30T07:28:42.778Z,48.50
2018-08-30T07:29:42.633Z,49.70
2018-08-30T07:30:42.622Z,45.50
2018-08-30T07:31:42.581Z,45.20
2018-08-30T07:32:42.560Z,48.40
2018-08-30T07:33:42.535Z,43.20
2018-08-30T07:34:42.647Z,49.50
2018-08-30T07:35:42.481Z,45.90
2018-08-30T07:36:42.459Z,46.60
2018-08-30T07:37:42.433Z,45.60
2018-08-30T07:38:42.408Z,47.20
2018-08-30T07:39:42.384Z,46.20
2018-08-30T07:40:43.372Z,45.00
2018-08-30T07:41:42.537Z,50.40
2018-08-30T07:42:42.514Z,50.40
2018-08-30T07:43:42.287Z,49.20
2018-08-30T07:44:42.382Z,45.20
2018-08-30T07:45:42.236Z,49.00
2018-08-30T07:46:42.214Z,50.70
2018-08-30T07:47:42.187Z,44.60
2018-08-30T07:48:42.170Z,44.10
2018-08-30T07:49:42.143Z,46.00
2018-08-30T07:50:42.117Z,41.60
2018-08-30T07:51:42.297Z,46.10
2018-08-30T07:52:42.272Z,45.50
2018-08-30T07:53:42.245Z,49.20
2018-08-30T07:54:42.220Z,48.70
2018-08-30T07:55:41.995Z,49.60
2018-08-30T07:56:41.968Z,44.80
2018-08-30T07:57:41.942Z,52.90
2018-08-30T07:58:41.921Z,45.30
2018-08-30T07:59:41.893Z,51.40
2018-08-30T08:00:42.075Z,44.70
2018-08-30T08:01:41.846Z,48.00
2018-08-30T08:02:41.822Z,43.60
2018-08-30T08:03:41.807Z,50.70
2018-08-30T08:04:41.975Z,49.10
2018-08-30T08:05:41.747Z,45.40
2018-08-30T08:06:41.927Z,54.60
2018-08-30T08:07:41.899Z,48.50
2018-08-30T08:08:41.676Z,46.50
2018-08-30T08:09:41.651Z,49.20
2018-08-30T08:10:41.627Z,47.40
2018-08-30T08:11:41.603Z,46.20
2018-08-30T08:12:41.596Z,47.70
2018-08-30T08:13:41.553Z,50.20
2018-08-30T08:14:41.527Z,46.60
2018-08-30T08:15:41.720Z,48.70
2018-08-30T08:16:41.729Z,47.90
2018-08-30T08:17:41.464Z,50.80
2018-08-30T08:18:41.438Z,49.30
2018-08-30T08:19:41.412Z,48.80
2018-08-30T08:20:41.386Z,41.60
2018-08-30T08:21:41.359Z,48.30
2018-08-30T08:22:41.335Z,46.50
2018-08-30T08:23:41.513Z,44.70
2018-08-30T08:24:41.290Z,44.80
2018-08-30T08:25:41.266Z,46.40
2018-08-30T08:26:41.441Z,44.90
2018-08-30T08:27:41.419Z,50.60
2018-08-30T08:28:41.191Z,41.50
2018-08-30T08:29:41.169Z,41.60
2018-08-30T08:30:41.148Z,49.40
2018-08-30T08:31:41.120Z,47.80
2018-08-30T08:32:41.097Z,40.60
2018-08-30T08:33:41.107Z,48.20
2018-08-30T08:34:41.049Z,43.30
2018-08-30T08:35:41.023Z,44.20
2018-08-30T08:36:41.000Z,39.60
2018-08-30T08:37:40.977Z,47.20
2018-08-30T08:38:40.951Z,43.30
2018-08-30T08:39:40.928Z,45.60
2018-08-30T08:40:40.906Z,44.30
2018-08-30T08:41:40.886Z,42.50
2018-08-30T08:42:41.059Z,47.50
2018-08-30T08:43:40.833Z,43.00
2018-08-30T08:44:40.815Z,46.70
2018-08-30T08:45:40.783Z,44.70
2018-08-30T08:46:40.761Z,39.80
2018-08-30T08:47:40.793Z,41.40
2018-08-30T08:48:40.712Z,43.20
2018-08-30T08:49:40.892Z,43.00
2018-08-30T08:50:40.869Z,37.00
2018-08-30T08:51:40.845Z,42.00
2018-08-30T08:52:40.824Z,41.60
2018-08-30T08:53:40.803Z,39.90
2018-08-30T08:54:41.177Z,42.20
2018-08-30T08:55:40.547Z,42.10
2018-08-30T08:56:40.523Z,38.80
2018-08-30T08:57:40.505Z,41.10
2018-08-30T08:58:40.504Z,41.60
2018-08-30T08:59:40.452Z,41.00
2018-08-30T09:00:40.434Z,36.50
2018-08-30T09:01:40.409Z,45.40
2018-08-30T09:02:40.384Z,46.70
2018-08-30T09:03:40.561Z,40.60
2018-08-30T09:04:40.337Z,42.70
2018-08-30T09:05:40.311Z,40.20
2018-08-30T09:06:40.288Z,45.10
2018-08-30T09:07:40.295Z,40.50
2018-08-30T09:08:40.240Z,45.60
2018-08-30T09:09:40.220Z,38.30
2018-08-30T09:10:40.398Z,38.40
2018-08-30T09:11:40.170Z,44.10
2018-08-30T09:12:40.153Z,39.70
2018-08-30T09:13:40.167Z,39.90
2018-08-30T09:14:40.101Z,40.50
2018-08-30T09:15:40.077Z,43.80
2018-08-30T09:16:40.059Z,40.30
2018-08-30T09:17:40.029Z,41.30
2018-08-30T09:18:40.005Z,42.70
2018-08-30T09:19:40.182Z,40.60
2018-08-30T09:20:39.966Z,39.90
2018-08-30T09:21:40.137Z,43.50
2018-08-30T09:22:39.910Z,38.80
2018-08-30T09:23:40.090Z,43.60
2018-08-30T09:24:39.871Z,41.50
2018-08-30T09:25:40.040Z,35.60
2018-08-30T09:26:42.643Z,40.70
2018-08-30T09:27:39.993Z,41.60
2018-08-30T09:28:39.984Z,43.10
2018-08-30T09:29:39.945Z,38.40
2018-08-30T09:30:39.921Z,40.90
2018-08-30T09:31:39.895Z,40.20
2018-08-30T09:32:39.673Z,36.00
2018-08-30T09:33:39.652Z,36.00
2018-08-30T09:34:39.829Z,37.50
2018-08-30T09:36:21.954Z,32.90
2018-08-30T09:37:21.729Z,32.70
2018-08-30T09:38:21.705Z,41.00
2018-08-30T09:39:21.689Z,36.10
2018-08-30T09:40:21.662Z,35.60
2018-08-30T09:42:03.992Z,31.30
2018-08-30T09:43:03.767Z,33.30
2018-08-30T09:44:06.566Z,35.70
2018-08-30T09:45:03.724Z,33.20
2018-08-30T09:46:03.705Z,40.90
2018-08-30T09:47:03.878Z,32.50
2018-08-30T09:48:03.860Z,40.50
2018-08-30T09:49:03.833Z,36.70
2018-08-30T09:50:03.815Z,34.50
2018-08-30T09:51:03.584Z,34.90
2018-08-30T09:52:03.563Z,34.50
2018-08-30T09:53:03.553Z,30.40
2018-08-30T09:54:03.533Z,34.50
2018-08-30T09:55:03.499Z,35.90
2018-08-30T09:56:03.729Z,31.90
2018-08-30T09:57:03.615Z,40.90
2018-08-30T09:58:03.458Z,35.20
2018-08-30T09:59:03.411Z,30.70
2018-08-30T10:00:03.395Z,33.00
2018-08-30T10:01:03.397Z,36.00
2018-08-30T10:02:03.337Z,32.50
2018-08-30T10:03:03.314Z,35.20
2018-08-30T10:04:03.292Z,31.40
2018-08-30T10:05:03.277Z,35.00
2018-08-30T10:06:03.458Z,31.10
2018-08-30T10:07:04.237Z,36.30
2018-08-30T10:08:03.204Z,35.40
2018-08-30T10:09:03.184Z,31.50
2018-08-30T10:10:03.168Z,37.90
2018-08-30T10:11:03.133Z,36.70
2018-08-30T10:12:03.116Z,41.60
2018-08-30T10:13:03.089Z,40.10
2018-08-30T10:14:03.067Z,40.20
2018-08-30T10:15:03.044Z,39.20
2018-08-30T10:16:03.052Z,38.40
2018-08-30T10:17:03.004Z,38.80
2018-08-30T10:18:02.978Z,39.00
2018-08-30T10:19:02.953Z,34.60
2018-08-30T10:20:02.931Z,35.70
2018-08-30T10:21:02.908Z,37.30
2018-08-30T10:22:02.884Z,35.00
2018-08-30T10:23:02.860Z,37.50
2018-08-30T10:24:02.847Z,35.60
2018-08-30T10:25:02.817Z,37.00
2018-08-30T10:26:02.797Z,34.40
2018-08-30T10:27:02.771Z,36.00
2018-08-30T10:28:02.758Z,32.60
2018-08-30T10:29:02.734Z,35.10
2018-08-30T10:30:02.706Z,35.90
2018-08-30T10:31:02.887Z,34.70
2018-08-30T10:32:02.861Z,36.40
2018-08-30T10:33:02.657Z,31.80
2018-08-30T10:34:02.614Z,34.30
2018-08-30T10:35:02.595Z,30.80
2018-08-30T10:36:02.567Z,33.20
2018-08-30T10:37:02.666Z,27.80
2018-08-30T10:38:02.524Z,30.20
2018-08-30T10:39:02.511Z,28.90
2018-08-30T10:40:02.477Z,31.30
2018-08-30T10:41:02.504Z,31.50
2018-08-30T10:42:02.638Z,35.60
2018-08-30T10:43:02.661Z,33.90
2018-08-30T10:44:02.387Z,33.40
2018-08-30T10:45:02.365Z,31.60
2018-08-30T10:46:02.342Z,32.10
2018-08-30T10:47:02.318Z,36.10
2018-08-30T10:48:02.298Z,31.30
2018-08-30T10:49:02.270Z,31.40
2018-08-30T10:50:02.249Z,30.50
2018-08-30T10:51:02.224Z,32.20
2018-08-30T10:52:02.215Z,32.30
2018-08-30T10:53:02.182Z,31.20
2018-08-30T10:54:02.161Z,31.70
2018-08-30T10:55:02.155Z,30.50
2018-08-30T10:56:02.114Z,32.40
2018-08-30T10:57:02.295Z,31.00
2018-08-30T10:58:02.077Z,33.90
2018-08-30T10:59:02.249Z,33.60
2018-08-30T11:00:02.024Z,35.10
2018-08-30T11:01:02.246Z,31.30
2018-08-30T11:02:01.988Z,32.20
2018-08-30T11:03:01.957Z,29.10
2018-08-30T11:04:01.943Z,30.70
2018-08-30T11:05:01.906Z,30.40
2018-08-30T11:06:01.887Z,30.90
2018-08-30T11:07:01.883Z,32.70
2018-08-30T11:08:01.865Z,34.80
2018-08-30T11:09:01.815Z,31.10
2018-08-30T11:10:01.790Z,30.80
2018-08-30T11:11:01.766Z,34.70
2018-08-30T11:12:01.745Z,32.50
2018-08-30T11:13:01.885Z,29.10
2018-08-30T11:14:01.703Z,32.10
2018-08-30T11:15:01.676Z,30.00
2018-08-30T11:16:01.653Z,28.60
2018-08-30T11:17:01.631Z,29.00
2018-08-30T11:18:01.607Z,29.90
2018-08-30T11:19:01.583Z,26.30
2018-08-30T11:20:01.561Z,25.80
2018-08-30T11:21:01.535Z,28.00
2018-08-30T11:22:01.512Z,25.70
2018-08-30T11:23:01.691Z,24.80
2018-08-30T11:24:01.464Z,24.40
2018-08-30T11:25:01.443Z,26.20
2018-08-30T11:26:01.419Z,22.40
2018-08-30T11:27:01.397Z,26.00
2018-08-30T11:28:01.372Z,24.70
2018-08-30T11:29:01.346Z,22.70
2018-08-30T11:30:01.324Z,26.30
2018-08-30T11:31:01.299Z,19.80
2018-08-30T11:32:01.279Z,22.30
2018-08-30T11:33:01.253Z,20.60
2018-08-30T11:34:01.231Z,23.10
2018-08-30T11:35:01.205Z,23.70
2018-08-30T11:36:01.182Z,22.30
2018-08-30T11:37:01.162Z,22.20
2018-08-30T11:38:01.144Z,20.80
2018-08-30T11:39:01.114Z,22.20
2018-08-30T11:40:01.092Z,25.20
2018-08-30T11:41:01.065Z,18.20
2018-08-30T11:42:01.041Z,19.90
2018-08-30T11:43:01.017Z,18.10
2018-08-30T11:44:00.995Z,18.50
2018-08-30T11:45:00.998Z,19.90
2018-08-30T11:46:00.949Z,21.70
2018-08-30T11:47:00.927Z,21.10
2018-08-30T11:48:00.904Z,16.60
2018-08-30T11:49:00.878Z,21.30
2018-08-30T11:50:00.857Z,14.70
2018-08-30T11:51:00.830Z,18.50
2018-08-30T11:52:00.807Z,16.00
2018-08-30T11:53:00.781Z,17.50
2018-08-30T11:54:00.763Z,17.40
2018-08-30T11:55:00.734Z,17.90
2018-08-30T11:56:00.733Z,18.50
2018-08-30T11:57:00.694Z,17.20
2018-08-30T11:58:00.670Z,17.70
2018-08-30T11:59:00.650Z,17.00
2018-08-30T12:00:00.619Z,17.40
2018-08-30T12:01:00.601Z,15.80
2018-08-30T12:02:00.572Z,15.70
2018-08-30T12:03:00.547Z,14.30
2018-08-30T12:04:00.525Z,17.10
2018-08-30T12:05:00.498Z,14.20
2018-08-30T12:06:00.476Z,16.60
2018-08-30T12:07:00.520Z,19.20
2018-08-30T12:08:00.547Z,13.50
2018-08-30T12:09:00.410Z,16.60
2018-08-30T12:10:00.384Z,16.10
2018-08-30T12:11:00.703Z,16.00
2018-08-30T12:12:00.334Z,16.60
2018-08-30T12:13:00.309Z,15.40
2018-08-30T12:14:00.285Z,16.10
2018-08-30T12:15:00.260Z,18.50
2018-08-30T12:18:49.052Z,21.60
2018-08-30T12:19:49.020Z,15.60
2018-08-30T12:20:49.169Z,21.70
2018-08-30T12:21:48.973Z,19.70
2018-08-30T12:22:48.953Z,18.80
2018-08-30T12:23:48.722Z,21.70
2018-08-30T12:24:48.698Z,18.60
2018-08-30T12:26:31.028Z,16.70
2018-08-30T12:28:13.164Z,17.00
2018-08-30T12:29:13.237Z,17.70
2018-08-30T12:30:16.586Z,17.50
2018-08-30T12:31:55.241Z,16.70
2018-08-30T12:32:55.219Z,16.90
2018-08-30T12:33:55.037Z,15.90
2018-08-30T12:34:55.133Z,17.20
2018-08-30T12:35:55.243Z,17.10
2018-08-30T12:37:38.512Z,18.60
2018-08-30T12:39:19.473Z,16.30
2018-08-30T12:40:19.318Z,16.80
2018-08-30T12:41:19.150Z,16.60
2018-08-30T12:43:01.693Z,19.70
2018-08-30T12:44:01.461Z,20.40
2018-08-30T12:47:50.060Z,16.20
2018-08-30T12:49:32.170Z,18.10
2018-08-30T12:50:32.360Z,15.00
2018-08-30T12:52:56.556Z,15.60
2018-08-30T12:53:56.192Z,13.90
2018-08-30T12:54:56.247Z,13.80
2018-08-30T12:55:56.505Z,16.50
2018-08-30T12:56:56.235Z,15.40
2018-08-30T12:57:56.231Z,16.70
2018-08-30T12:58:56.141Z,16.30
2018-08-30T12:59:56.182Z,13.50
2018-08-30T13:00:56.202Z,13.20
2018-08-30T13:01:56.118Z,13.40
2018-08-30T13:03:38.508Z,12.00
2018-08-30T13:04:38.676Z,13.40
2018-08-30T13:05:38.503Z,12.20
2018-08-30T13:06:38.200Z,13.10
2018-08-30T13:07:38.249Z,13.60
2018-08-30T13:08:38.391Z,11.60
2018-08-30T13:09:38.326Z,11.50
2018-08-30T13:10:38.296Z,12.30
2018-08-30T13:11:38.246Z,14.40
2018-08-30T13:12:38.263Z,11.80
2018-08-30T13:13:38.168Z,13.40
2018-08-30T13:14:38.127Z,12.30
2018-08-30T13:15:38.064Z,15.30
2018-08-30T13:16:38.022Z,16.20
2018-08-30T13:17:38.065Z,15.50